createdAt,value
2018-07-30T00:01:08.516Z,99.90
2018-07-30T00:03:36.709Z,99.90
2018-07-30T00:06:04.912Z,99.90
2018-07-30T00:08:33.550Z,99.90
2018-07-30T00:11:01.729Z,99.90
2018-07-30T00:13:29.895Z,99.90
2018-07-30T00:16:01.512Z,99.90
2018-07-30T00:18:29.725Z,99.90
2018-07-30T00:20:57.938Z,99.90
2018-07-30T00:23:26.116Z,99.90
2018-07-30T00:25:54.295Z,99.90
2018-07-30T00:28:23.455Z,99.90
2018-07-30T00:30:55.126Z,99.90
2018-07-30T00:35:55.302Z,99.90
2018-07-30T00:40:52.490Z,99.90
2018-07-30T00:43:20.676Z,99.90
2018-07-30T00:45:49.210Z,99.90
2018-07-30T00:48:17.438Z,99.90
2018-07-30T00:50:45.559Z,99.90
2018-07-30T00:53:13.731Z,99.90
2018-07-30T00:55:41.973Z,99.90
2018-07-30T00:58:10.185Z,99.90
2018-07-30T01:00:38.584Z,99.90
2018-07-30T01:03:06.748Z,99.90
2018-07-30T01:08:02.920Z,99.90
2018-07-30T01:10:31.126Z,99.90
2018-07-30T01:12:59.339Z,99.90
2018-07-30T01:15:27.915Z,99.90
2018-07-30T01:17:59.269Z,99.90
2018-07-30T01:22:56.342Z,99.90
2018-07-30T01:25:24.530Z,99.90
2018-07-30T01:30:20.863Z,99.90
2018-07-30T01:32:49.045Z,99.90
2018-07-30T01:37:45.810Z,99.90
2018-07-30T01:40:14.155Z,99.90
2018-07-30T01:42:42.395Z,99.90
2018-07-30T01:45:10.591Z,99.90
2018-07-30T01:47:41.735Z,99.90
2018-07-30T01:50:09.927Z,99.90
2018-07-30T01:52:38.203Z,99.90
2018-07-30T01:57:35.302Z,99.90
2018-07-30T02:00:03.627Z,99.90
2018-07-30T02:05:11.672Z,99.90
2018-07-30T02:07:40.783Z,99.90
2018-07-30T02:10:10.614Z,99.90
2018-07-30T02:15:07.540Z,99.90
2018-07-30T02:20:04.029Z,99.90
2018-07-30T02:22:32.224Z,99.90
2018-07-30T02:25:00.427Z,99.90
2018-07-30T02:29:56.881Z,99.90
2018-07-30T02:32:25.136Z,99.90
2018-07-30T02:34:56.427Z,99.90
2018-07-30T02:37:25.196Z,99.90
2018-07-30T02:39:54.086Z,99.90
2018-07-30T02:42:22.303Z,99.90
2018-07-30T02:44:50.540Z,99.90
2018-07-30T02:47:18.754Z,99.90
2018-07-30T02:49:50.863Z,99.90
2018-07-30T02:52:19.435Z,99.90
2018-07-30T02:54:47.651Z,99.90
2018-07-30T02:59:44.049Z,99.90
2018-07-30T03:02:12.239Z,99.90
2018-07-30T03:04:44.046Z,99.90
2018-07-30T03:07:12.236Z,99.90
2018-07-30T03:09:40.468Z,99.90
2018-07-30T03:12:08.831Z,99.90
2018-07-30T03:14:37.019Z,99.90
2018-07-30T03:17:05.220Z,99.90
2018-07-30T03:19:36.431Z,99.90
2018-07-30T03:22:04.612Z,99.90
2018-07-30T03:24:33.760Z,99.90
2018-07-30T03:27:02.187Z,99.90
2018-07-30T03:29:30.863Z,99.90
2018-07-30T03:31:59.063Z,99.90
2018-07-30T03:34:30.288Z,99.90
2018-07-30T03:36:59.382Z,99.90
2018-07-30T03:39:27.550Z,99.90
2018-07-30T03:41:55.778Z,99.90
2018-07-30T03:44:24.157Z,99.90
2018-07-30T03:46:52.670Z,99.90
2018-07-30T03:49:23.944Z,99.90
2018-07-30T03:51:52.130Z,99.90
2018-07-30T03:56:49.003Z,99.90
2018-07-30T04:01:45.167Z,99.90
2018-07-30T04:04:13.716Z,99.90
2018-07-30T04:06:41.891Z,99.90
2018-07-30T04:09:10.098Z,99.90
2018-07-30T04:11:38.579Z,99.90
2018-07-30T04:14:06.799Z,99.90
2018-07-30T04:16:39.095Z,99.90
2018-07-30T04:19:07.283Z,99.90
2018-07-30T04:21:35.515Z,99.90
2018-07-30T04:26:31.721Z,99.90
2018-07-30T04:29:00.099Z,99.90
2018-07-30T04:31:28.726Z,99.90
2018-07-30T04:33:56.934Z,99.90
2018-07-30T04:36:25.160Z,99.90
2018-07-30T04:38:53.382Z,99.90
2018-07-30T04:41:21.604Z,99.90
2018-07-30T04:43:49.829Z,99.90
2018-07-30T04:46:18.187Z,99.90
2018-07-30T04:48:46.395Z,99.90
2018-07-30T04:51:14.732Z,99.90
2018-07-30T04:53:42.905Z,99.90
2018-07-30T04:56:11.179Z,99.90
2018-07-30T04:58:39.357Z,99.90
2018-07-30T05:01:07.775Z,99.90
2018-07-30T05:03:35.932Z,99.90
2018-07-30T05:06:04.179Z,99.90
2018-07-30T05:08:32.379Z,99.90
2018-07-30T05:11:00.592Z,99.90
2018-07-30T05:13:28.811Z,99.90
2018-07-30T05:15:57.019Z,99.90
2018-07-30T05:18:25.204Z,99.90
2018-07-30T05:20:57.736Z,99.90
2018-07-30T05:23:25.937Z,98.50
2018-07-30T05:25:54.103Z,97.10
2018-07-30T05:28:22.321Z,96.00
2018-07-30T05:30:50.695Z,94.20
2018-07-30T05:33:18.887Z,92.70
2018-07-30T05:35:51.482Z,91.60
2018-07-30T05:38:22.940Z,90.70
2018-07-30T05:40:51.147Z,89.50
2018-07-30T05:43:19.376Z,87.80
2018-07-30T05:48:15.588Z,87.10
2018-07-30T05:50:43.819Z,85.10
2018-07-30T05:53:12.222Z,84.00
2018-07-30T05:55:40.460Z,83.30
2018-07-30T05:58:08.776Z,81.10
2018-07-30T06:00:37.003Z,79.80
2018-07-30T06:03:05.380Z,77.70
2018-07-30T06:05:33.626Z,75.50
2018-07-30T06:08:05.434Z,74.50
2018-07-30T06:10:33.639Z,73.10
2018-07-30T06:13:04.883Z,71.50
2018-07-30T06:15:33.303Z,70.70
2018-07-30T06:18:02.435Z,71.40
2018-07-30T06:20:30.682Z,70.80
2018-07-30T06:22:58.890Z,69.70
2018-07-30T06:25:27.298Z,68.80
2018-07-30T06:27:55.467Z,68.70
2018-07-30T06:30:23.667Z,69.10
2018-07-30T06:32:51.851Z,70.20
2018-07-30T06:35:20.098Z,71.90
2018-07-30T06:37:51.311Z,74.50
2018-07-30T06:40:19.571Z,77.20
2018-07-30T06:42:47.771Z,80.30
2018-07-30T06:45:15.948Z,82.90
2018-07-30T06:47:45.211Z,86.00
2018-07-30T06:50:13.396Z,88.00
2018-07-30T06:52:45.186Z,88.80
2018-07-30T06:55:13.406Z,89.80
2018-07-30T07:00:10.823Z,91.10
2018-07-30T07:02:39.423Z,91.30
2018-07-30T07:05:08.520Z,92.20
2018-07-30T07:07:44.359Z,91.70
2018-07-30T07:10:13.082Z,92.10
2018-07-30T07:12:41.388Z,92.10
2018-07-30T07:15:11.864Z,92.50
2018-07-30T07:20:08.471Z,92.30
2018-07-30T07:22:36.796Z,92.40
2018-07-30T07:25:05.372Z,92.60
2018-07-30T07:30:01.803Z,92.10
2018-07-30T07:32:29.999Z,91.90
2018-07-30T07:34:58.255Z,91.70
2018-07-30T07:37:26.387Z,91.40
2018-07-30T07:39:58.403Z,91.50
2018-07-30T07:42:26.708Z,91.20
2018-07-30T07:47:23.015Z,91.00
2018-07-30T07:49:51.287Z,90.80
2018-07-30T07:52:19.526Z,90.30
2018-07-30T07:54:52.294Z,90.00
2018-07-30T07:57:20.527Z,88.60
2018-07-30T07:59:48.804Z,87.30
2018-07-30T08:02:17.264Z,86.90
2018-07-30T08:04:45.533Z,86.50
2018-07-30T08:07:13.710Z,85.50
2018-07-30T08:09:46.143Z,84.10
2018-07-30T08:12:14.316Z,84.80
2018-07-30T08:17:11.448Z,83.90
2018-07-30T08:19:39.705Z,83.10
2018-07-30T08:22:08.335Z,81.30
2018-07-30T08:24:40.109Z,80.10
2018-07-30T08:29:37.027Z,77.20
2018-07-30T08:32:05.282Z,76.00
2018-07-30T08:34:33.479Z,76.30
2018-07-30T08:37:01.661Z,75.50
2018-07-30T08:39:33.044Z,74.70
2018-07-30T08:42:01.287Z,75.20
2018-07-30T08:44:29.479Z,75.50
2018-07-30T08:49:26.524Z,74.50
2018-07-30T08:51:54.696Z,74.50
2018-07-30T08:54:27.055Z,74.90
2018-07-30T08:56:55.320Z,74.10
2018-07-30T08:59:23.707Z,74.80
2018-07-30T09:01:51.880Z,74.30
2018-07-30T09:04:20.052Z,73.50
2018-07-30T09:06:48.555Z,73.20
2018-07-30T09:09:19.884Z,74.20
2018-07-30T09:11:48.975Z,73.80
2018-07-30T09:14:17.564Z,73.90
2018-07-30T09:16:45.751Z,73.70
2018-07-30T09:19:13.976Z,72.20
2018-07-30T09:21:42.148Z,71.60
2018-07-30T09:24:10.340Z,71.80
2018-07-30T09:26:38.558Z,71.20
2018-07-30T09:29:06.744Z,71.10
2018-07-30T09:31:34.948Z,70.80
2018-07-30T09:34:03.147Z,71.00
2018-07-30T09:36:31.366Z,70.90
2018-07-30T09:41:27.684Z,69.40
2018-07-30T09:43:55.871Z,69.20
2018-07-30T09:46:24.063Z,69.20
2018-07-30T09:48:52.635Z,69.50
2018-07-30T09:51:20.879Z,68.50
2018-07-30T09:53:49.262Z,67.90
2018-07-30T09:56:17.487Z,68.00
2018-07-30T09:58:45.656Z,67.90
2018-07-30T10:01:19.206Z,68.30
2018-07-30T10:06:15.670Z,67.50
2018-07-30T10:08:43.858Z,67.30
2018-07-30T10:11:12.615Z,66.80
2018-07-30T10:13:40.812Z,67.00
2018-07-30T10:16:09.016Z,66.60
2018-07-30T10:18:37.420Z,65.20
2018-07-30T10:21:05.689Z,65.00
2018-07-30T10:23:33.855Z,65.70
2018-07-30T10:26:02.036Z,65.40
2018-07-30T10:28:30.227Z,63.90
2018-07-30T10:30:58.411Z,63.70
2018-07-30T10:33:26.592Z,61.70
2018-07-30T10:35:54.811Z,63.10
2018-07-30T10:38:23.292Z,61.50
2018-07-30T10:40:54.911Z,59.90
2018-07-30T10:43:23.153Z,60.80
2018-07-30T10:45:51.791Z,59.90
2018-07-30T10:48:20.004Z,60.30
2018-07-30T10:50:49.111Z,59.30
2018-07-30T10:53:17.258Z,58.90
2018-07-30T10:58:18.384Z,58.70
2018-07-30T11:00:47.111Z,58.50
2018-07-30T11:03:15.383Z,58.50
2018-07-30T11:05:43.591Z,57.90
2018-07-30T11:08:11.817Z,58.40
2018-07-30T11:10:40.013Z,59.10
2018-07-30T11:13:08.239Z,58.70
2018-07-30T11:15:37.353Z,58.30
2018-07-30T11:18:06.454Z,58.70
2018-07-30T11:20:34.748Z,58.50
2018-07-30T11:25:30.940Z,57.60
2018-07-30T11:28:03.334Z,56.90
2018-07-30T11:30:31.472Z,56.50
2018-07-30T11:32:59.660Z,56.00
2018-07-30T11:35:27.856Z,55.00
2018-07-30T11:37:56.169Z,55.50
2018-07-30T11:40:24.374Z,54.70
2018-07-30T11:42:57.249Z,53.90
2018-07-30T11:45:25.421Z,53.80
2018-07-30T11:47:53.565Z,54.10
2018-07-30T11:50:22.498Z,53.40
2018-07-30T11:52:51.786Z,53.50
2018-07-30T11:55:19.983Z,53.90
2018-07-30T11:57:48.299Z,53.20
2018-07-30T12:00:16.485Z,52.60
2018-07-30T12:05:19.482Z,50.10
2018-07-30T12:07:47.648Z,49.40
2018-07-30T12:12:44.764Z,47.30
2018-07-30T12:15:23.835Z,47.20
2018-07-30T12:17:52.034Z,46.70
2018-07-30T12:20:20.242Z,47.10
2018-07-30T12:22:48.656Z,47.50
2018-07-30T12:25:16.839Z,46.90
2018-07-30T12:27:48.907Z,46.70
2018-07-30T12:30:20.571Z,47.10
2018-07-30T12:32:55.802Z,47.80
2018-07-30T12:35:24.008Z,46.80
2018-07-30T12:37:52.538Z,46.90
2018-07-30T12:40:20.799Z,47.10
2018-07-30T12:43:01.087Z,46.70
2018-07-30T12:45:34.752Z,47.00
2018-07-30T12:48:02.932Z,47.60
2018-07-30T12:50:31.191Z,47.60
2018-07-30T12:52:59.373Z,47.80
2018-07-30T12:55:27.608Z,47.20
2018-07-30T12:57:55.871Z,46.80
2018-07-30T13:00:24.101Z,46.90
2018-07-30T13:02:52.429Z,46.70
2018-07-30T13:05:20.652Z,44.30
2018-07-30T13:07:48.857Z,45.00
2018-07-30T13:10:17.220Z,44.40
2018-07-30T13:12:45.448Z,44.00
2018-07-30T13:15:16.755Z,44.40
2018-07-30T13:17:48.176Z,43.80
2018-07-30T13:20:16.459Z,42.20
2018-07-30T13:22:44.672Z,42.80
2018-07-30T13:25:12.872Z,43.60
2018-07-30T13:27:41.211Z,44.30
2018-07-30T13:30:13.259Z,44.50
2018-07-30T13:32:41.670Z,43.60
2018-07-30T13:35:09.896Z,42.70
2018-07-30T13:37:38.109Z,42.50
2018-07-30T13:40:06.452Z,42.80
2018-07-30T13:42:34.721Z,43.10
2018-07-30T13:45:02.864Z,43.30
2018-07-30T13:47:31.213Z,42.50
2018-07-30T13:49:59.413Z,42.70
2018-07-30T13:52:27.647Z,43.20
2018-07-30T13:54:55.847Z,42.90
2018-07-30T13:57:24.051Z,43.30
2018-07-30T13:59:55.590Z,44.80
2018-07-30T14:02:23.835Z,45.70
2018-07-30T14:04:52.219Z,45.80
2018-07-30T14:07:20.415Z,47.00
2018-07-30T14:09:49.506Z,46.30
2018-07-30T14:12:17.683Z,47.70
2018-07-30T14:14:56.483Z,46.00
2018-07-30T14:17:24.675Z,46.10
2018-07-30T14:19:53.552Z,45.60
2018-07-30T14:22:21.779Z,45.20
2018-07-30T14:24:49.936Z,45.50
2018-07-30T14:27:18.500Z,45.90
2018-07-30T14:29:50.235Z,45.40
2018-07-30T14:32:18.963Z,46.60
2018-07-30T14:34:47.119Z,46.10
2018-07-30T14:37:15.294Z,46.50
2018-07-30T14:39:43.431Z,46.30
2018-07-30T14:42:11.616Z,46.20
2018-07-30T14:44:39.822Z,46.20
2018-07-30T14:47:08.505Z,46.50
2018-07-30T14:49:36.701Z,46.70
2018-07-30T14:52:04.945Z,46.10
2018-07-30T14:54:33.105Z,46.20
2018-07-30T14:57:01.297Z,46.20
2018-07-30T14:59:29.501Z,46.20
2018-07-30T15:01:58.020Z,45.80
2018-07-30T15:04:26.204Z,45.70
2018-07-30T15:06:54.343Z,45.40
2018-07-30T15:09:22.549Z,45.60
2018-07-30T15:11:50.744Z,45.50
2018-07-30T15:14:18.919Z,47.20
2018-07-30T15:16:47.200Z,47.40
2018-07-30T15:19:15.713Z,45.60
2018-07-30T15:21:44.121Z,45.50
2018-07-30T15:24:12.299Z,45.50
2018-07-30T15:26:42.419Z,45.70
2018-07-30T15:29:10.623Z,46.00
2018-07-30T15:31:38.796Z,45.90
2018-07-30T15:34:07.391Z,46.10
2018-07-30T15:39:07.668Z,48.30
2018-07-30T15:41:35.913Z,48.00
2018-07-30T15:44:04.225Z,49.40
2018-07-30T15:46:32.434Z,49.60
2018-07-30T15:49:00.653Z,49.10
2018-07-30T15:51:28.853Z,48.20
2018-07-30T15:53:57.115Z,48.00
2018-07-30T15:56:25.293Z,47.40
2018-07-30T15:58:53.438Z,47.50
2018-07-30T16:01:25.887Z,48.20
2018-07-30T16:03:54.079Z,47.70
2018-07-30T16:06:22.424Z,49.50
2018-07-30T16:08:50.674Z,52.20
2018-07-30T16:11:18.912Z,51.80
2018-07-30T16:13:47.147Z,50.90
2018-07-30T16:16:15.398Z,52.10
2018-07-30T16:18:43.627Z,52.80
2018-07-30T16:21:11.814Z,53.10
2018-07-30T16:23:39.987Z,53.10
2018-07-30T16:26:08.200Z,53.40
2018-07-30T16:28:36.423Z,54.70
2018-07-30T16:31:04.625Z,53.10
2018-07-30T16:33:36.849Z,55.80
2018-07-30T16:36:05.374Z,54.70
2018-07-30T16:38:33.640Z,54.60
2018-07-30T16:41:01.911Z,55.80
2018-07-30T16:43:31.102Z,56.20
2018-07-30T16:45:59.343Z,54.70
2018-07-30T16:48:27.782Z,55.70
2018-07-30T16:50:56.355Z,55.70
2018-07-30T16:55:53.574Z,57.40
2018-07-30T16:58:21.799Z,57.40
2018-07-30T17:00:50.535Z,55.60
2018-07-30T17:03:18.712Z,58.00
2018-07-30T17:05:47.010Z,57.60
2018-07-30T17:08:15.416Z,56.00
2018-07-30T17:10:43.651Z,55.40
2018-07-30T17:13:12.008Z,57.10
2018-07-30T17:15:40.311Z,59.10
2018-07-30T17:18:13.112Z,57.40
2018-07-30T17:20:41.743Z,59.40
2018-07-30T17:23:11.106Z,59.00
2018-07-30T17:25:39.277Z,58.80
2018-07-30T17:28:07.651Z,60.80
2018-07-30T17:30:35.931Z,59.10
2018-07-30T17:33:04.107Z,58.30
2018-07-30T17:35:32.334Z,61.20
2018-07-30T17:38:00.707Z,57.90
2018-07-30T17:40:28.896Z,54.80
2018-07-30T17:42:57.150Z,54.50
2018-07-30T17:45:25.424Z,55.20
2018-07-30T17:47:57.917Z,54.70
2018-07-30T17:50:26.432Z,55.90
2018-07-30T17:52:55.611Z,59.20
2018-07-30T17:55:23.871Z,60.30
2018-07-30T17:57:52.087Z,62.20
2018-07-30T18:00:20.442Z,63.00
2018-07-30T18:02:48.672Z,62.00
2018-07-30T18:05:18.779Z,61.80
2018-07-30T18:07:48.340Z,61.90
2018-07-30T18:10:16.681Z,61.50
2018-07-30T18:12:45.547Z,61.50
2018-07-30T18:15:13.815Z,62.30
2018-07-30T18:17:42.043Z,64.60
2018-07-30T18:20:10.439Z,65.90
2018-07-30T18:22:38.883Z,65.90
2018-07-30T18:25:07.067Z,66.60
2018-07-30T18:27:35.263Z,67.00
2018-07-30T18:30:04.860Z,67.90
2018-07-30T18:32:33.083Z,68.70
2018-07-30T18:35:04.536Z,68.90
2018-07-30T18:37:32.789Z,70.70
2018-07-30T18:40:02.159Z,72.50
2018-07-30T18:42:30.807Z,72.80
2018-07-30T18:44:59.322Z,74.20
2018-07-30T18:47:27.493Z,72.70
2018-07-30T18:49:59.363Z,74.30
2018-07-30T18:52:27.542Z,76.60
2018-07-30T18:54:55.785Z,78.10
2018-07-30T18:57:23.982Z,78.80
2018-07-30T18:59:52.239Z,78.10
2018-07-30T19:02:20.434Z,79.60
2018-07-30T19:04:52.219Z,80.10
2018-07-30T19:07:20.696Z,80.60
2018-07-30T19:09:48.880Z,80.80
2018-07-30T19:12:17.202Z,81.10
2018-07-30T19:14:51.828Z,80.00
2018-07-30T19:19:52.657Z,78.20
2018-07-30T19:22:21.203Z,75.90
2018-07-30T19:24:49.526Z,77.10
2018-07-30T19:27:18.026Z,75.80
2018-07-30T19:29:46.548Z,78.70
2018-07-30T19:32:14.892Z,81.30
2018-07-30T19:34:43.236Z,81.80
2018-07-30T19:37:11.507Z,77.60
2018-07-30T19:39:39.785Z,77.90
2018-07-30T19:42:08.081Z,79.90
2018-07-30T19:44:36.432Z,78.90
2018-07-30T19:47:05.280Z,78.20
2018-07-30T19:49:33.586Z,78.60
2018-07-30T19:52:05.091Z,79.00
2018-07-30T19:54:33.306Z,81.10
2018-07-30T19:57:01.616Z,81.60
2018-07-30T19:59:29.900Z,82.10
2018-07-30T20:01:58.235Z,80.80
2018-07-30T20:04:26.836Z,80.30
2018-07-30T20:06:55.095Z,78.60
2018-07-30T20:09:23.323Z,77.80
2018-07-30T20:11:51.904Z,80.40
2018-07-30T20:14:20.674Z,82.80
2018-07-30T20:16:48.967Z,85.10
2018-07-30T20:19:17.376Z,84.10
2018-07-30T20:21:45.820Z,80.00
2018-07-30T20:24:14.145Z,78.40
2018-07-30T20:26:42.505Z,78.60
2018-07-30T20:29:10.791Z,79.80
2018-07-30T20:31:39.104Z,78.80
2018-07-30T20:34:07.344Z,79.00
2018-07-30T20:36:35.559Z,79.90
2018-07-30T20:39:05.687Z,77.70
2018-07-30T20:41:33.932Z,78.00
2018-07-30T20:44:02.148Z,77.90
2018-07-30T20:46:31.168Z,80.60
2018-07-30T20:49:00.309Z,81.10
2018-07-30T20:51:28.615Z,82.70
2018-07-30T20:53:56.826Z,83.70
2018-07-30T20:56:25.117Z,83.40
2018-07-30T20:58:53.370Z,85.40
2018-07-30T21:01:21.752Z,84.00
2018-07-30T21:03:50.053Z,84.30
2018-07-30T21:06:29.834Z,83.90
2018-07-30T21:08:58.171Z,84.10
2018-07-30T21:11:26.659Z,86.20
2018-07-30T21:13:54.993Z,87.90
2018-07-30T21:16:23.218Z,89.40
2018-07-30T21:18:51.423Z,90.00
2018-07-30T21:21:19.676Z,89.70
2018-07-30T21:23:47.847Z,89.90
2018-07-30T21:26:16.042Z,90.10
2018-07-30T21:28:44.256Z,90.60
2018-07-30T21:31:12.489Z,90.80
2018-07-30T21:33:40.642Z,90.40
2018-07-30T21:36:08.850Z,91.20
2018-07-30T21:38:37.013Z,91.70
2018-07-30T21:41:05.250Z,91.50
2018-07-30T21:43:33.602Z,91.00
2018-07-30T21:46:01.849Z,91.90
2018-07-30T21:48:30.051Z,91.80
2018-07-30T21:50:58.303Z,92.30
2018-07-30T21:53:26.527Z,92.90
2018-07-30T21:55:54.723Z,93.50
2018-07-30T21:58:22.955Z,93.10
2018-07-30T22:00:58.056Z,92.80
2018-07-30T22:03:26.800Z,93.20
2018-07-30T22:05:57.521Z,93.60
2018-07-30T22:08:26.257Z,93.80
2018-07-30T22:10:54.506Z,94.50
2018-07-30T22:13:22.699Z,94.80
2018-07-30T22:15:50.943Z,95.20
2018-07-30T22:20:53.960Z,95.70
2018-07-30T22:23:26.351Z,95.90
2018-07-30T22:25:54.696Z,95.90
2018-07-30T22:28:22.900Z,95.70
2018-07-30T22:30:51.377Z,95.80
2018-07-30T22:33:19.611Z,96.00
2018-07-30T22:35:47.899Z,95.50
2018-07-30T22:38:16.183Z,94.40
2018-07-30T22:40:44.555Z,95.60
2018-07-30T22:43:12.766Z,95.80
2018-07-30T22:45:40.958Z,96.20
2018-07-30T22:48:09.263Z,95.90
2018-07-30T22:50:37.475Z,95.50
2018-07-30T22:53:05.660Z,96.00
2018-07-30T22:55:33.894Z,95.90
2018-07-30T22:58:02.117Z,97.10
2018-07-30T23:00:30.303Z,96.20
2018-07-30T23:02:58.482Z,96.60
2018-07-30T23:05:26.711Z,96.40
2018-07-30T23:07:54.960Z,97.20
2018-07-30T23:12:54.261Z,98.70
2018-07-30T23:15:22.490Z,98.80
2018-07-30T23:17:50.705Z,99.10
2018-07-30T23:20:26.607Z,99.80
2018-07-30T23:22:54.806Z,99.90
2018-07-30T23:25:24.255Z,99.90
2018-07-30T23:27:52.511Z,99.90
2018-07-30T23:30:20.757Z,99.90
2018-07-30T23:32:48.947Z,99.90
2018-07-30T23:35:17.203Z,99.90
2018-07-30T23:40:17.095Z,99.90
2018-07-30T23:42:46.225Z,99.90
2018-07-30T23:45:14.415Z,99.90
2018-07-30T23:47:42.629Z,99.90
2018-07-30T23:50:10.836Z,99.90
2018-07-30T23:52:39.030Z,99.90
2018-07-30T23:55:10.942Z,99.90
2018-07-30T23:57:39.150Z,99.90
